createdAt,value
2018-12-13T00:02:16.307Z,7.95
2018-12-13T00:04:44.931Z,7.95
2018-12-13T00:07:13.538Z,7.95
2018-12-13T00:09:42.137Z,7.94
2018-12-13T00:12:10.770Z,7.93
2018-12-13T00:14:39.375Z,7.91
2018-12-13T00:17:08.134Z,7.90
2018-12-13T00:19:36.758Z,7.90
2018-12-13T00:22:05.634Z,7.90
2018-12-13T00:24:34.284Z,7.88
2018-12-13T00:27:02.900Z,7.88
2018-12-13T00:29:31.530Z,7.87
2018-12-13T00:32:00.174Z,7.86
2018-12-13T00:34:28.840Z,7.85
2018-12-13T00:36:57.456Z,7.84
2018-12-13T00:39:26.073Z,7.83
2018-12-13T00:41:54.771Z,7.81
2018-12-13T00:44:23.381Z,7.81
2018-12-13T00:46:52.959Z,7.80
2018-12-13T00:49:21.577Z,7.79
2018-12-13T00:51:50.222Z,7.77
2018-12-13T00:54:18.834Z,7.76
2018-12-13T00:56:47.562Z,7.74
2018-12-13T00:59:16.183Z,7.72
2018-12-13T01:01:44.814Z,7.72
2018-12-13T01:04:13.410Z,7.70
2018-12-13T01:06:45.976Z,7.69
2018-12-13T01:09:12.637Z,7.66
2018-12-13T01:11:41.226Z,7.65
2018-12-13T01:14:09.812Z,7.65
2018-12-13T01:16:38.411Z,7.63
2018-12-13T01:19:07.069Z,7.62
2018-12-13T01:21:35.865Z,7.61
2018-12-13T01:24:04.589Z,7.60
2018-12-13T01:26:33.194Z,7.60
2018-12-13T01:29:01.784Z,7.59
2018-12-13T01:31:30.393Z,7.58
2018-12-13T01:33:58.981Z,7.57
2018-12-13T01:36:27.570Z,7.55
2018-12-13T01:38:56.164Z,7.56
2018-12-13T01:41:24.758Z,7.56
2018-12-13T01:43:53.359Z,7.55
2018-12-13T01:46:22.076Z,7.55
2018-12-13T01:48:50.656Z,7.53
2018-12-13T01:51:19.241Z,7.53
2018-12-13T01:53:47.850Z,7.53
2018-12-13T01:56:16.465Z,7.52
2018-12-13T01:58:45.077Z,7.51
2018-12-13T02:01:14.282Z,7.50
2018-12-13T02:03:42.877Z,7.49
2018-12-13T02:06:11.509Z,7.49
2018-12-13T02:08:40.132Z,7.49
2018-12-13T02:11:08.737Z,7.48
2018-12-13T02:13:37.361Z,7.47
2018-12-13T02:16:05.973Z,7.46
2018-12-13T02:18:34.595Z,7.46
2018-12-13T02:21:03.194Z,7.44
2018-12-13T02:23:31.862Z,7.45
2018-12-13T02:26:00.460Z,7.46
2018-12-13T02:28:29.066Z,7.44
2018-12-13T02:30:57.702Z,7.42
2018-12-13T02:33:27.154Z,7.43
2018-12-13T02:35:55.782Z,7.43
2018-12-13T02:38:24.415Z,7.43
2018-12-13T02:40:53.052Z,7.43
2018-12-13T02:43:21.778Z,7.43
2018-12-13T02:45:50.400Z,7.42
2018-12-13T02:48:18.983Z,7.41
2018-12-13T02:50:47.590Z,7.41
2018-12-13T02:53:16.203Z,7.41
2018-12-13T02:55:44.823Z,7.40
2018-12-13T02:58:13.443Z,7.40
2018-12-13T03:00:42.117Z,7.41
2018-12-13T03:03:10.739Z,7.41
2018-12-13T03:05:39.398Z,7.41
2018-12-13T03:08:08.007Z,7.40
2018-12-13T03:10:36.619Z,7.40
2018-12-13T03:13:05.237Z,7.41
2018-12-13T03:15:33.842Z,7.41
2018-12-13T03:18:02.444Z,7.41
2018-12-13T03:20:31.050Z,7.40
2018-12-13T03:22:59.663Z,7.40
2018-12-13T03:25:28.398Z,7.40
2018-12-13T03:27:56.978Z,7.41
2018-12-13T03:30:25.570Z,7.42
2018-12-13T03:32:54.183Z,7.41
2018-12-13T03:35:22.789Z,7.42
2018-12-13T03:37:51.394Z,7.40
2018-12-13T03:40:19.994Z,7.41
2018-12-13T03:42:48.631Z,7.41
2018-12-13T03:45:17.240Z,7.41
2018-12-13T03:47:45.864Z,7.40
2018-12-13T03:50:14.464Z,7.40
2018-12-13T03:52:43.063Z,7.38
2018-12-13T03:55:11.677Z,7.38
2018-12-13T03:57:40.328Z,7.38
2018-12-13T04:00:09.123Z,7.38
2018-12-13T04:02:37.700Z,7.37
2018-12-13T04:05:06.424Z,7.37
2018-12-13T04:07:35.083Z,7.36
2018-12-13T04:10:03.890Z,7.35
2018-12-13T04:12:32.484Z,7.35
2018-12-13T04:15:01.073Z,7.35
2018-12-13T04:17:29.678Z,7.35
2018-12-13T04:19:58.286Z,7.34
2018-12-13T04:22:26.885Z,7.33
2018-12-13T04:24:55.463Z,7.34
2018-12-13T04:27:24.051Z,7.33
2018-12-13T04:29:52.680Z,7.33
2018-12-13T04:32:21.302Z,7.32
2018-12-13T04:34:49.881Z,7.32
2018-12-13T04:37:18.479Z,7.32
2018-12-13T04:39:47.086Z,7.31
2018-12-13T04:42:15.701Z,7.31
2018-12-13T04:44:44.310Z,7.31
2018-12-13T04:47:12.926Z,7.31
2018-12-13T04:49:41.498Z,7.31
2018-12-13T04:52:10.124Z,7.30
2018-12-13T04:54:38.722Z,7.30
2018-12-13T04:57:07.303Z,7.31
2018-12-13T04:59:35.888Z,7.30
2018-12-13T05:02:05.511Z,7.30
2018-12-13T05:04:34.124Z,7.31
2018-12-13T05:07:02.716Z,7.31
2018-12-13T05:09:31.329Z,7.31
2018-12-13T05:11:59.942Z,7.30
2018-12-13T05:14:28.546Z,7.30
2018-12-13T05:16:57.174Z,7.29
2018-12-13T05:19:25.866Z,7.30
2018-12-13T05:21:54.463Z,7.29
2018-12-13T05:24:23.099Z,7.27
2018-12-13T05:26:51.704Z,7.29
2018-12-13T05:29:20.304Z,7.28
2018-12-13T05:31:48.886Z,7.28
2018-12-13T05:34:17.513Z,7.27
2018-12-13T05:36:46.126Z,7.27
2018-12-13T05:39:14.733Z,7.27
2018-12-13T05:41:43.342Z,7.27
2018-12-13T05:44:13.986Z,7.26
2018-12-13T05:46:42.578Z,7.26
2018-12-13T05:49:11.170Z,7.25
2018-12-13T05:51:39.762Z,7.26
2018-12-13T05:54:08.354Z,7.27
2018-12-13T05:56:36.926Z,7.27
2018-12-13T05:59:05.530Z,7.27
2018-12-13T06:01:34.151Z,7.25
2018-12-13T06:04:02.741Z,7.25
2018-12-13T06:06:31.362Z,7.25
2018-12-13T06:08:59.983Z,7.24
2018-12-13T06:11:28.590Z,7.25
2018-12-13T06:13:57.192Z,7.24
2018-12-13T06:16:25.785Z,7.24
2018-12-13T06:18:54.832Z,7.24
2018-12-13T06:21:23.417Z,7.25
2018-12-13T06:23:51.991Z,7.23
2018-12-13T06:26:20.629Z,7.24
2018-12-13T06:28:49.217Z,7.23
2018-12-13T06:31:17.813Z,7.23
2018-12-13T06:33:46.434Z,7.24
2018-12-13T06:36:15.638Z,7.24
2018-12-13T06:38:44.247Z,7.23
2018-12-13T06:41:12.870Z,7.23
2018-12-13T06:43:41.485Z,7.24
2018-12-13T06:46:10.114Z,7.23
2018-12-13T06:48:38.734Z,7.23
2018-12-13T06:51:07.365Z,7.23
2018-12-13T06:53:35.978Z,7.24
2018-12-13T06:56:04.636Z,7.24
2018-12-13T06:58:33.237Z,7.24
2018-12-13T07:01:01.849Z,7.23
2018-12-13T07:03:30.478Z,7.24
2018-12-13T07:05:59.061Z,7.24
2018-12-13T07:08:27.686Z,7.24
2018-12-13T07:10:56.262Z,7.24
2018-12-13T07:13:24.877Z,7.25
2018-12-13T07:15:53.586Z,7.24
2018-12-13T07:18:22.178Z,7.25
2018-12-13T07:20:50.770Z,7.25
2018-12-13T07:23:19.373Z,7.25
2018-12-13T07:25:47.994Z,7.26
2018-12-13T07:28:16.622Z,7.24
2018-12-13T07:30:45.242Z,7.25
2018-12-13T07:33:13.837Z,7.25
2018-12-13T07:35:42.442Z,7.25
2018-12-13T07:38:14.224Z,7.24
2018-12-13T07:40:41.691Z,7.26
2018-12-13T07:43:10.372Z,7.27
2018-12-13T07:45:38.970Z,7.26
2018-12-13T07:48:08.374Z,7.27
2018-12-13T07:50:36.995Z,7.27
2018-12-13T07:53:05.627Z,7.26
2018-12-13T07:55:34.303Z,7.28
2018-12-13T07:58:03.022Z,7.28
2018-12-13T08:00:31.678Z,7.29
2018-12-13T08:03:00.301Z,7.27
2018-12-13T08:05:28.906Z,7.27
2018-12-13T08:07:57.514Z,7.28
2018-12-13T08:10:26.164Z,7.28
2018-12-13T08:12:54.795Z,7.28
2018-12-13T08:15:23.399Z,7.28
2018-12-13T08:17:52.014Z,7.28
2018-12-13T08:20:20.628Z,7.26
2018-12-13T08:22:49.895Z,7.28
2018-12-13T08:25:18.743Z,7.28
2018-12-13T08:27:47.357Z,7.28
2018-12-13T08:30:15.957Z,7.28
2018-12-13T08:32:44.581Z,7.29
2018-12-13T08:35:13.235Z,7.29
2018-12-13T08:37:41.851Z,7.30
2018-12-13T08:40:10.507Z,7.31
2018-12-13T08:42:39.159Z,7.31
2018-12-13T08:45:08.025Z,7.32
2018-12-13T08:47:36.627Z,7.31
2018-12-13T08:50:05.629Z,7.33
2018-12-13T08:52:34.285Z,7.34
2018-12-13T08:55:02.917Z,7.35
2018-12-13T08:57:31.538Z,7.34
2018-12-13T09:00:00.160Z,7.34
2018-12-13T09:02:28.774Z,7.36
2018-12-13T09:04:57.362Z,7.35
2018-12-13T09:07:26.014Z,7.37
2018-12-13T09:09:54.622Z,7.37
2018-12-13T09:12:23.241Z,7.37
2018-12-13T09:14:51.869Z,7.37
2018-12-13T09:17:20.503Z,7.38
2018-12-13T09:19:49.107Z,7.39
2018-12-13T09:22:17.724Z,7.40
2018-12-13T09:24:46.367Z,7.40
2018-12-13T09:27:14.966Z,7.42
2018-12-13T09:29:43.611Z,7.43
2018-12-13T09:32:12.234Z,7.44
2018-12-13T09:34:40.854Z,7.45
2018-12-13T09:37:09.593Z,7.45
2018-12-13T09:39:38.238Z,7.48
2018-12-13T09:42:06.874Z,7.49
2018-12-13T09:44:35.480Z,7.49
2018-12-13T09:47:04.127Z,7.50
2018-12-13T09:49:32.747Z,7.50
2018-12-13T09:52:01.363Z,7.50
2018-12-13T09:54:30.001Z,7.51
2018-12-13T09:56:58.602Z,7.50
2018-12-13T09:59:27.209Z,7.51
2018-12-13T10:01:55.828Z,7.52
2018-12-13T10:04:24.435Z,7.53
2018-12-13T10:06:53.096Z,7.54
2018-12-13T10:09:21.737Z,7.54
2018-12-13T10:11:50.519Z,7.54
2018-12-13T10:14:19.168Z,7.55
2018-12-13T10:16:47.784Z,7.56
2018-12-13T10:19:16.411Z,7.58
2018-12-13T10:21:45.058Z,7.59
2018-12-13T10:24:13.698Z,7.62
2018-12-13T10:26:42.448Z,7.62
2018-12-13T10:29:11.061Z,7.65
2018-12-13T10:31:39.660Z,7.68
2018-12-13T10:34:08.291Z,7.71
2018-12-13T10:36:36.902Z,7.73
2018-12-13T10:39:08.295Z,7.73
2018-12-13T10:41:36.975Z,7.77
2018-12-13T10:44:05.610Z,7.78
2018-12-13T10:46:34.248Z,7.80
2018-12-13T10:49:02.860Z,7.82
2018-12-13T10:51:31.480Z,7.83
2018-12-13T10:54:00.113Z,7.85
2018-12-13T10:56:28.746Z,7.84
2018-12-13T10:58:57.404Z,7.85
2018-12-13T11:01:31.350Z,7.86
2018-12-13T11:03:59.997Z,7.86
2018-12-13T11:06:28.645Z,7.87
2018-12-13T11:08:59.555Z,7.89
2018-12-13T11:11:27.944Z,7.91
2018-12-13T11:13:56.558Z,7.94
2018-12-13T11:16:25.453Z,7.94
2018-12-13T11:18:54.155Z,7.96
2018-12-13T11:21:22.838Z,7.98
2018-12-13T11:23:51.509Z,7.98
2018-12-13T11:26:20.167Z,8.00
2018-12-13T11:30:28.212Z,8.01
2018-12-13T11:32:56.819Z,8.01
2018-12-13T11:35:25.420Z,8.01
2018-12-13T11:37:54.546Z,8.01
2018-12-13T11:40:23.607Z,8.00
2018-12-13T11:42:53.195Z,8.01
2018-12-13T11:45:22.325Z,8.03
2018-12-13T11:47:51.223Z,8.05
2018-12-13T11:50:20.276Z,8.09
2018-12-13T11:52:49.270Z,8.12
2018-12-13T11:55:32.470Z,8.13
2018-12-13T11:58:01.436Z,8.18
2018-12-13T12:00:30.588Z,8.21
2018-12-13T12:02:59.603Z,8.27
2018-12-13T12:05:28.718Z,8.28
2018-12-13T12:07:57.650Z,8.30
2018-12-13T12:10:26.686Z,8.33
2018-12-13T12:12:55.725Z,8.32
2018-12-13T12:15:24.645Z,8.32
2018-12-13T12:17:53.582Z,8.31
2018-12-13T12:20:22.564Z,8.27
2018-12-13T12:22:51.914Z,8.25
2018-12-13T12:25:20.783Z,8.22
2018-12-13T12:27:49.806Z,8.21
2018-12-13T12:30:18.779Z,8.19
2018-12-13T12:32:47.721Z,8.18
2018-12-13T12:35:16.630Z,8.18
2018-12-13T12:37:45.692Z,8.19
2018-12-13T12:40:14.782Z,8.18
2018-12-13T12:42:43.731Z,8.19
2018-12-13T12:45:12.657Z,8.19
2018-12-13T12:47:41.707Z,8.19
2018-12-13T12:50:10.718Z,8.19
2018-12-13T12:52:39.862Z,8.18
2018-12-13T12:55:08.987Z,8.18
2018-12-13T12:57:38.268Z,8.17
2018-12-13T13:00:08.464Z,8.15
2018-12-13T13:02:37.772Z,8.15
2018-12-13T13:05:07.078Z,8.14
2018-12-13T13:07:36.190Z,8.16
2018-12-13T13:10:06.709Z,8.17
2018-12-13T13:12:35.656Z,8.18
2018-12-13T13:15:04.826Z,8.19
2018-12-13T13:17:33.905Z,8.18
2018-12-13T13:20:02.960Z,8.16
2018-12-13T13:22:31.820Z,8.16
2018-12-13T13:25:01.058Z,8.17
2018-12-13T13:27:30.038Z,8.16
2018-12-13T13:29:58.995Z,8.16
2018-12-13T13:32:28.232Z,8.14
2018-12-13T13:34:57.382Z,8.13
2018-12-13T13:37:26.328Z,8.12
2018-12-13T13:39:55.260Z,8.11
2018-12-13T13:42:24.085Z,8.12
2018-12-13T13:44:57.059Z,8.12
2018-12-13T13:47:26.125Z,8.11
2018-12-13T13:49:55.493Z,8.11
2018-12-13T13:52:24.586Z,8.10
2018-12-13T13:54:53.829Z,8.09
2018-12-13T13:57:22.875Z,8.08
2018-12-13T13:59:51.853Z,8.06
2018-12-13T14:02:20.880Z,8.05
2018-12-13T14:04:49.907Z,8.02
2018-12-13T14:07:18.921Z,8.00
2018-12-13T14:09:48.087Z,7.98
2018-12-13T14:12:17.534Z,7.97
2018-12-13T14:14:46.667Z,7.95
2018-12-13T14:17:15.569Z,7.93
2018-12-13T14:19:44.732Z,7.92
2018-12-13T14:22:13.727Z,7.89
2018-12-13T14:24:42.861Z,7.88
2018-12-13T14:27:12.048Z,7.86
2018-12-13T14:29:41.142Z,7.84
2018-12-13T14:32:10.058Z,7.84
2018-12-13T14:34:39.328Z,7.84
2018-12-13T14:37:08.296Z,7.83
2018-12-13T14:39:37.428Z,7.84
2018-12-13T14:42:06.202Z,7.82
2018-12-13T14:44:35.069Z,7.79
2018-12-13T14:47:04.041Z,7.78
2018-12-13T14:49:33.216Z,7.77
2018-12-13T14:52:02.533Z,7.76
2018-12-13T14:54:31.773Z,7.73
2018-12-13T14:57:00.831Z,7.73
2018-12-13T14:59:29.769Z,7.72
2018-12-13T15:01:58.813Z,7.73
2018-12-13T15:04:27.883Z,7.72
2018-12-13T15:06:56.999Z,7.69
2018-12-13T15:09:26.261Z,7.68
2018-12-13T15:11:55.410Z,7.66
2018-12-13T15:14:24.394Z,7.65
2018-12-13T15:16:53.717Z,7.64
2018-12-13T15:19:22.800Z,7.63
2018-12-13T15:21:52.039Z,7.64
2018-12-13T15:24:21.131Z,7.61
2018-12-13T15:26:50.350Z,7.60
2018-12-13T15:29:19.511Z,7.58
2018-12-13T15:31:48.669Z,7.58
2018-12-13T15:34:17.862Z,7.57
2018-12-13T15:36:47.928Z,7.55
2018-12-13T15:39:17.026Z,7.55
2018-12-13T15:41:46.227Z,7.53
2018-12-13T15:44:15.348Z,7.52
2018-12-13T15:46:44.493Z,7.51
2018-12-13T15:49:13.539Z,7.51
2018-12-13T15:51:42.787Z,7.50
2018-12-13T15:54:11.422Z,7.48
2018-12-13T15:56:40.047Z,7.47
2018-12-13T15:59:08.667Z,7.44
2018-12-13T16:01:37.301Z,7.43
2018-12-13T16:04:05.931Z,7.41
2018-12-13T16:06:34.588Z,7.39
2018-12-13T16:09:04.327Z,7.35
2018-12-13T16:11:33.462Z,7.36
2018-12-13T16:14:02.719Z,7.34
2018-12-13T16:16:31.488Z,7.34
2018-12-13T16:19:00.118Z,7.33
2018-12-13T16:21:29.381Z,7.31
2018-12-13T16:23:58.043Z,7.31
2018-12-13T16:26:26.816Z,7.31
2018-12-13T16:28:55.420Z,7.30
2018-12-13T16:31:24.038Z,7.29
2018-12-13T16:33:53.287Z,7.29
2018-12-13T16:36:21.899Z,7.27
2018-12-13T16:38:50.495Z,7.27
2018-12-13T16:41:19.116Z,7.27
2018-12-13T16:43:48.329Z,7.26
2018-12-13T16:46:17.006Z,7.27
2018-12-13T16:48:45.647Z,7.26
2018-12-13T16:51:14.308Z,7.24
2018-12-13T16:53:42.954Z,7.23
2018-12-13T16:56:11.647Z,7.20
2018-12-13T16:58:40.280Z,7.18
2018-12-13T17:01:08.911Z,7.16
2018-12-13T17:03:40.287Z,7.15
2018-12-13T17:06:09.074Z,7.14
2018-12-13T17:08:37.782Z,7.12
2018-12-13T17:11:07.116Z,7.11
2018-12-13T17:13:35.756Z,7.09
2018-12-13T17:16:04.636Z,7.08
2018-12-13T17:18:33.287Z,7.08
2018-12-13T17:21:01.889Z,7.06
2018-12-13T17:23:30.476Z,7.07
2018-12-13T17:25:59.081Z,7.05
2018-12-13T17:28:27.723Z,7.03
2018-12-13T17:30:56.367Z,7.01
2018-12-13T17:33:24.958Z,7.01
2018-12-13T17:35:53.578Z,7.01
2018-12-13T17:38:22.658Z,6.99
2018-12-13T17:40:52.037Z,6.98
2018-12-13T17:43:20.635Z,6.97
2018-12-13T17:45:49.261Z,6.97
2018-12-13T17:48:17.990Z,6.97
2018-12-13T17:50:46.595Z,6.95
2018-12-13T17:53:15.265Z,6.94
2018-12-13T17:55:44.791Z,6.94
2018-12-13T17:58:13.407Z,6.94
2018-12-13T18:00:42.194Z,6.92
2018-12-13T18:03:10.830Z,6.92
2018-12-13T18:05:39.450Z,6.92
2018-12-13T18:08:08.086Z,6.91
2018-12-13T18:10:36.724Z,6.90
2018-12-13T18:13:05.369Z,6.89
2018-12-13T18:15:34.005Z,6.89
2018-12-13T18:18:02.634Z,6.88
2018-12-13T18:20:31.230Z,6.87
2018-12-13T18:22:59.841Z,6.85
2018-12-13T18:25:29.009Z,6.86
2018-12-13T18:27:57.638Z,6.86
2018-12-13T18:30:26.349Z,6.85
2018-12-13T18:32:54.982Z,6.84
2018-12-13T18:35:23.630Z,6.84
2018-12-13T18:37:52.362Z,6.83
2018-12-13T18:40:20.971Z,6.82
2018-12-13T18:42:49.641Z,6.80
2018-12-13T18:45:20.335Z,6.78
2018-12-13T18:47:49.068Z,6.78
2018-12-13T18:50:17.704Z,6.76
2018-12-13T18:52:46.466Z,6.74
2018-12-13T18:55:15.104Z,6.73
2018-12-13T18:57:43.783Z,6.70
2018-12-13T19:00:12.402Z,6.69
2018-12-13T19:02:41.022Z,6.68
2018-12-13T19:05:09.782Z,6.66
2018-12-13T19:07:38.422Z,6.65
2018-12-13T19:10:07.207Z,6.62
2018-12-13T19:12:35.829Z,6.62
2018-12-13T19:15:05.001Z,6.60
2018-12-13T19:17:33.632Z,6.58
2018-12-13T19:20:02.265Z,6.55
2018-12-13T19:22:31.532Z,6.54
2018-12-13T19:25:00.272Z,6.53
2018-12-13T19:27:28.978Z,6.51
2018-12-13T19:29:57.653Z,6.50
2018-12-13T19:32:26.346Z,6.48
2018-12-13T19:35:00.185Z,6.46
2018-12-13T19:37:25.715Z,6.42
2018-12-13T19:39:54.501Z,6.40
2018-12-13T19:42:23.172Z,6.39
2018-12-13T19:44:52.047Z,6.37
2018-12-13T19:47:20.687Z,6.36
2018-12-13T19:49:49.336Z,6.34
2018-12-13T19:52:18.033Z,6.32
2018-12-13T19:54:46.825Z,6.30
2018-12-13T19:57:15.552Z,6.28
2018-12-13T19:59:45.552Z,6.27
2018-12-13T20:02:15.845Z,6.26
2018-12-13T20:04:44.489Z,6.25
2018-12-13T20:07:13.862Z,6.23
2018-12-13T20:09:42.772Z,6.22
2018-12-13T20:12:12.179Z,6.20
2018-12-13T20:14:41.013Z,6.19
2018-12-13T20:17:10.407Z,6.17
2018-12-13T20:19:39.319Z,6.15
2018-12-13T20:22:08.164Z,6.13
2018-12-13T20:24:36.974Z,6.12
2018-12-13T20:27:05.894Z,6.11
2018-12-13T20:29:35.549Z,6.10
2018-12-13T20:32:04.314Z,6.08
2018-12-13T20:34:33.445Z,6.05
2018-12-13T20:37:02.263Z,6.03
2018-12-13T20:39:31.630Z,6.02
2018-12-13T20:42:02.207Z,5.98
2018-12-13T20:44:31.508Z,5.96
2018-12-13T20:47:00.134Z,5.95
2018-12-13T20:49:29.326Z,5.92
2018-12-13T20:51:57.991Z,5.89
2018-12-13T20:54:26.617Z,5.87
2018-12-13T20:56:55.220Z,5.85
2018-12-13T20:59:23.850Z,5.82
2018-12-13T21:01:52.514Z,5.78
2018-12-13T21:04:21.144Z,5.75
2018-12-13T21:06:53.949Z,5.72
2018-12-13T21:09:22.607Z,5.68
2018-12-13T21:11:52.494Z,5.66
2018-12-13T21:14:21.283Z,5.64
2018-12-13T21:16:49.897Z,5.64
2018-12-13T21:19:18.541Z,5.61
2018-12-13T21:21:47.157Z,5.60
2018-12-13T21:24:15.782Z,5.58
2018-12-13T21:26:44.426Z,5.57
2018-12-13T21:29:13.029Z,5.55
2018-12-13T21:31:41.695Z,5.53
2018-12-13T21:34:10.342Z,5.50
2018-12-13T21:36:38.954Z,5.46
2018-12-13T21:39:08.561Z,5.45
2018-12-13T21:41:37.175Z,5.43
2018-12-13T21:44:05.880Z,5.41
2018-12-13T21:46:35.335Z,5.39
2018-12-13T21:49:04.140Z,5.36
2018-12-13T21:51:32.757Z,5.33
2018-12-13T21:54:01.398Z,5.30
2018-12-13T21:56:30.087Z,5.28
2018-12-13T21:59:03.740Z,5.24
2018-12-13T22:01:29.394Z,5.22
2018-12-13T22:03:58.483Z,5.18
2018-12-13T22:06:27.136Z,5.17
2018-12-13T22:08:55.754Z,5.13
2018-12-13T22:11:24.509Z,5.09
2018-12-13T22:13:53.154Z,5.07
2018-12-13T22:16:21.857Z,5.03
2018-12-13T22:18:50.497Z,5.02
2018-12-13T22:21:19.114Z,4.99
2018-12-13T22:23:47.774Z,4.96
2018-12-13T22:26:16.403Z,4.94
2018-12-13T22:28:45.003Z,4.92
2018-12-13T22:31:13.631Z,4.90
2018-12-13T22:33:42.283Z,4.86
2018-12-13T22:36:11.074Z,4.85
2018-12-13T22:38:39.830Z,4.83
2018-12-13T22:41:08.468Z,4.81
2018-12-13T22:43:37.101Z,4.78
2018-12-13T22:46:05.760Z,4.78
2018-12-13T22:48:34.373Z,4.77
2018-12-13T22:51:03.011Z,4.75
2018-12-13T22:53:31.638Z,4.73
2018-12-13T22:56:00.264Z,4.71
2018-12-13T22:58:28.885Z,4.69
2018-12-13T23:00:57.661Z,4.66
2018-12-13T23:03:26.657Z,4.66
2018-12-13T23:05:55.281Z,4.64
2018-12-13T23:08:23.922Z,4.61
2018-12-13T23:10:52.709Z,4.59
2018-12-13T23:13:21.378Z,4.58
2018-12-13T23:15:50.023Z,4.55
2018-12-13T23:18:19.799Z,4.55
2018-12-13T23:20:48.988Z,4.53
2018-12-13T23:23:17.615Z,4.51
2018-12-13T23:25:46.385Z,4.50
2018-12-13T23:28:15.022Z,4.47
2018-12-13T23:30:44.381Z,4.46
2018-12-13T23:33:13.054Z,4.43
2018-12-13T23:35:41.690Z,4.43
2018-12-13T23:38:10.329Z,4.42
2018-12-13T23:40:38.981Z,4.40
2018-12-13T23:43:07.765Z,4.37
2018-12-13T23:45:36.420Z,4.36
2018-12-13T23:48:05.169Z,4.34
2018-12-13T23:50:33.779Z,4.33
2018-12-13T23:53:02.419Z,4.33
2018-12-13T23:55:31.052Z,4.30
2018-12-13T23:57:59.702Z,4.28
